createdAt,value
2022-11-12T00:01:03.093Z,88.29
2022-11-12T00:03:30.006Z,88.20
2022-11-12T00:05:57.076Z,88.43
2022-11-12T00:08:24.406Z,88.09
2022-11-12T00:10:51.553Z,87.91
2022-11-12T00:13:18.553Z,87.82
2022-11-12T00:15:47.294Z,87.43
2022-11-12T00:18:14.522Z,87.27
2022-11-12T00:20:42.558Z,87.56
2022-11-12T00:23:09.980Z,87.87
2022-11-12T00:25:36.947Z,87.58
2022-11-12T00:28:06.426Z,87.71
2022-11-12T00:30:33.598Z,88.01
2022-11-12T00:33:05.114Z,87.81
2022-11-12T00:35:33.486Z,87.71
2022-11-12T00:38:01.042Z,87.49
2022-11-12T00:40:29.049Z,87.30
2022-11-12T00:42:55.969Z,87.36
2022-11-12T00:45:23.398Z,87.68
2022-11-12T00:47:50.554Z,87.15
2022-11-12T00:50:17.692Z,87.02
2022-11-12T00:52:44.617Z,87.07
2022-11-12T00:55:11.727Z,87.09
2022-11-12T00:57:38.950Z,87.18
2022-11-12T01:00:07.296Z,87.09
2022-11-12T01:02:42.276Z,87.04
2022-11-12T01:05:10.743Z,87.77
2022-11-12T01:07:37.658Z,88.22
2022-11-12T01:10:05.004Z,88.00
2022-11-12T01:12:32.780Z,87.53
2022-11-12T01:14:59.812Z,87.35
2022-11-12T01:17:26.938Z,87.70
2022-11-12T01:19:53.931Z,87.36
2022-11-12T01:22:20.860Z,87.34
2022-11-12T01:24:47.749Z,87.21
2022-11-12T01:27:15.282Z,86.71
2022-11-12T01:29:42.213Z,87.39
2022-11-12T01:32:09.165Z,87.23
2022-11-12T01:34:36.056Z,87.48
2022-11-12T01:37:03.038Z,87.07
2022-11-12T01:39:29.949Z,87.05
2022-11-12T01:41:56.910Z,86.89
2022-11-12T01:44:27.177Z,87.57
2022-11-12T01:47:06.960Z,88.15
2022-11-12T01:49:44.303Z,88.74
2022-11-12T01:52:25.633Z,88.03
2022-11-12T01:54:58.698Z,88.32
2022-11-12T01:57:34.894Z,87.95
2022-11-12T02:00:07.332Z,87.67
2022-11-12T02:02:36.487Z,87.52
2022-11-12T02:05:27.408Z,87.20
2022-11-12T02:08:20.963Z,87.60
2022-11-12T02:11:01.404Z,87.55
2022-11-12T02:14:05.897Z,88.00
2022-11-12T02:16:53.462Z,88.03
2022-11-12T02:19:51.338Z,87.95
2022-11-12T02:22:18.210Z,87.88
2022-11-12T02:24:45.177Z,88.41
2022-11-12T02:27:12.868Z,88.36
2022-11-12T02:29:46.629Z,88.74
2022-11-12T02:32:14.105Z,88.38
2022-11-12T02:34:41.758Z,89.55
2022-11-12T02:37:08.669Z,89.36
2022-11-12T02:39:35.629Z,88.95
2022-11-12T02:42:02.580Z,89.54
2022-11-12T02:44:30.223Z,89.28
2022-11-12T02:46:57.207Z,88.83
2022-11-12T02:49:24.346Z,89.44
2022-11-12T02:51:51.237Z,88.83
2022-11-12T02:54:18.199Z,88.74
2022-11-12T02:56:45.123Z,88.54
2022-11-12T02:59:12.033Z,88.83
2022-11-12T03:01:39.110Z,88.44
2022-11-12T03:04:06.050Z,88.20
2022-11-12T03:06:33.018Z,88.07
2022-11-12T03:08:59.985Z,87.56
2022-11-12T03:11:27.584Z,87.29
2022-11-12T03:13:54.485Z,86.97
2022-11-12T03:16:21.418Z,87.32
2022-11-12T03:18:48.326Z,87.47
2022-11-12T03:21:15.400Z,86.30
2022-11-12T03:23:42.271Z,87.14
2022-11-12T03:26:09.191Z,88.09
2022-11-12T03:28:36.234Z,89.47
2022-11-12T03:31:03.256Z,89.03
2022-11-12T03:33:30.241Z,89.87
2022-11-12T03:35:57.158Z,89.73
2022-11-12T03:38:24.502Z,89.96
2022-11-12T03:40:51.793Z,89.80
2022-11-12T03:43:18.735Z,89.55
2022-11-12T03:45:45.661Z,89.77
2022-11-12T03:48:13.299Z,89.51
2022-11-12T03:50:40.219Z,90.10
2022-11-12T03:53:07.437Z,89.25
2022-11-12T03:55:34.502Z,87.69
2022-11-12T03:58:01.518Z,88.07
2022-11-12T04:00:30.345Z,87.63
2022-11-12T04:02:58.347Z,87.05
2022-11-12T04:05:44.907Z,88.06
2022-11-12T04:08:36.755Z,87.87
2022-11-12T04:11:15.396Z,88.47
2022-11-12T04:13:47.735Z,89.45
2022-11-12T04:16:39.063Z,89.93
2022-11-12T04:19:25.917Z,90.75
2022-11-12T04:21:55.435Z,89.70
2022-11-12T04:24:42.157Z,89.62
2022-11-12T04:27:12.857Z,89.94
2022-11-12T04:29:58.453Z,89.73
2022-11-12T04:32:26.087Z,89.98
2022-11-12T04:34:53.939Z,88.73
2022-11-12T04:37:23.628Z,89.03
2022-11-12T04:39:51.773Z,87.93
2022-11-12T04:42:37.631Z,88.48
2022-11-12T04:45:11.068Z,88.18
2022-11-12T04:47:40.830Z,88.25
2022-11-12T04:50:17.168Z,88.78
2022-11-12T04:52:44.482Z,89.04
2022-11-12T04:55:11.515Z,87.35
2022-11-12T04:57:39.452Z,88.18
2022-11-12T05:00:07.161Z,88.11
2022-11-12T05:02:34.101Z,88.58
2022-11-12T05:05:01.006Z,89.20
2022-11-12T05:07:27.964Z,89.43
2022-11-12T05:09:54.906Z,88.35
2022-11-12T05:12:21.870Z,88.62
2022-11-12T05:14:48.780Z,88.18
2022-11-12T05:17:15.729Z,89.54
2022-11-12T05:19:42.689Z,88.53
2022-11-12T05:22:33.318Z,89.44
2022-11-12T05:24:59.569Z,88.98
2022-11-12T05:27:26.605Z,89.30
2022-11-12T05:29:53.573Z,87.94
2022-11-12T05:32:20.777Z,88.31
2022-11-12T05:34:47.746Z,88.62
2022-11-12T05:37:15.345Z,89.39
2022-11-12T05:39:42.378Z,88.64
2022-11-12T05:42:14.144Z,88.34
2022-11-12T05:44:41.799Z,89.27
2022-11-12T05:47:08.786Z,89.21
2022-11-12T05:49:35.688Z,89.01
2022-11-12T05:52:02.645Z,89.70
2022-11-12T05:54:29.555Z,88.21
2022-11-12T05:56:56.467Z,87.64
2022-11-12T05:59:23.350Z,88.38
2022-11-12T06:01:50.577Z,88.53
2022-11-12T06:04:18.492Z,88.70
2022-11-12T06:06:45.683Z,88.47
2022-11-12T06:09:12.664Z,87.91
2022-11-12T06:11:39.807Z,87.61
2022-11-12T06:14:07.253Z,88.83
2022-11-12T06:16:34.397Z,89.23
2022-11-12T06:19:01.333Z,89.43
2022-11-12T06:21:28.790Z,89.51
2022-11-12T06:23:59.043Z,88.85
2022-11-12T06:26:28.754Z,88.28
2022-11-12T06:28:56.319Z,87.55
2022-11-12T06:31:23.876Z,87.37
2022-11-12T06:33:51.257Z,86.88
2022-11-12T06:36:20.637Z,86.90
2022-11-12T06:38:48.145Z,87.14
2022-11-12T06:41:15.249Z,87.51
2022-11-12T06:43:42.856Z,86.40
2022-11-12T06:46:14.220Z,86.42
2022-11-12T06:48:41.818Z,86.28
2022-11-12T06:51:20.294Z,86.21
2022-11-12T06:53:47.537Z,86.37
2022-11-12T06:56:15.631Z,86.93
2022-11-12T06:58:42.964Z,87.29
2022-11-12T07:01:15.543Z,87.15
2022-11-12T07:03:44.329Z,86.86
2022-11-12T07:06:19.411Z,87.02
2022-11-12T07:08:50.657Z,87.22
2022-11-12T07:11:21.475Z,88.13
2022-11-12T07:13:48.928Z,87.68
2022-11-12T07:16:18.923Z,88.26
2022-11-12T07:18:47.065Z,88.50
2022-11-12T07:21:19.186Z,87.77
2022-11-12T07:23:47.663Z,88.65
2022-11-12T07:26:18.165Z,89.37
2022-11-12T07:28:46.099Z,88.87
2022-11-12T07:31:15.767Z,89.39
2022-11-12T07:33:43.922Z,88.73
2022-11-12T07:36:13.363Z,88.99
2022-11-12T07:38:42.413Z,89.36
2022-11-12T07:41:16.094Z,90.47
2022-11-12T07:43:44.832Z,90.78
2022-11-12T07:46:20.768Z,91.05
2022-11-12T07:48:48.334Z,90.53
2022-11-12T07:51:20.952Z,90.76
2022-11-12T07:53:49.624Z,90.33
2022-11-12T07:56:20.421Z,89.65
2022-11-12T07:58:48.469Z,89.04
2022-11-12T08:01:30.921Z,88.28
2022-11-12T08:03:59.426Z,87.88
2022-11-12T08:06:27.469Z,87.31
2022-11-12T08:08:58.799Z,87.68
2022-11-12T08:11:26.744Z,87.18
2022-11-12T08:13:56.262Z,86.19
2022-11-12T08:16:23.524Z,86.08
2022-11-12T08:18:50.439Z,85.77
2022-11-12T08:21:18.644Z,85.34
2022-11-12T08:23:46.431Z,84.65
2022-11-12T08:26:16.297Z,84.17
2022-11-12T08:28:43.414Z,83.89
2022-11-12T08:31:16.672Z,82.60
2022-11-12T08:33:44.535Z,82.85
2022-11-12T08:36:13.950Z,82.29
2022-11-12T08:38:41.325Z,82.00
2022-11-12T08:41:10.744Z,82.42
2022-11-12T08:43:38.638Z,80.80
2022-11-12T08:46:05.663Z,81.06
2022-11-12T08:48:34.710Z,81.46
2022-11-12T08:51:03.060Z,80.65
2022-11-12T08:53:30.105Z,79.43
2022-11-12T08:55:57.782Z,80.26
2022-11-12T08:58:26.594Z,78.69
2022-11-12T09:00:54.673Z,78.38
2022-11-12T09:03:26.918Z,76.99
2022-11-12T09:05:54.762Z,77.22
2022-11-12T09:08:24.855Z,75.61
2022-11-12T09:10:52.467Z,76.66
2022-11-12T09:13:20.154Z,75.76
2022-11-12T09:15:47.924Z,74.19
2022-11-12T09:18:17.869Z,71.79
2022-11-12T09:20:44.961Z,73.12
2022-11-12T09:23:15.616Z,72.90
2022-11-12T09:25:43.634Z,72.84
2022-11-12T09:28:18.927Z,70.89
2022-11-12T09:30:50.576Z,71.47
2022-11-12T09:33:20.470Z,70.72
2022-11-12T09:35:47.874Z,69.62
2022-11-12T09:38:18.136Z,69.94
2022-11-12T09:41:08.234Z,69.01
2022-11-12T09:43:40.301Z,67.37
2022-11-12T09:46:28.347Z,67.33
2022-11-12T09:49:28.193Z,66.72
2022-11-12T09:52:05.914Z,68.69
2022-11-12T09:54:35.265Z,68.05
2022-11-12T09:57:02.705Z,66.69
2022-11-12T09:59:33.300Z,66.13
2022-11-12T10:02:19.899Z,66.34
2022-11-12T10:04:46.776Z,65.69
2022-11-12T10:07:39.444Z,65.27
2022-11-12T10:10:10.795Z,66.19
2022-11-12T10:13:14.807Z,65.58
2022-11-12T10:16:17.556Z,64.48
2022-11-12T10:18:59.488Z,63.94
2022-11-12T10:22:06.918Z,63.01
2022-11-12T10:24:40.411Z,63.00
2022-11-12T10:27:19.916Z,62.40
2022-11-12T10:30:01.301Z,62.49
2022-11-12T10:32:28.282Z,61.78
2022-11-12T10:34:55.267Z,61.78
2022-11-12T10:37:36.177Z,61.47
2022-11-12T10:40:22.786Z,62.01
2022-11-12T10:43:00.710Z,61.43
2022-11-12T10:45:28.549Z,60.97
2022-11-12T10:47:56.111Z,60.72
2022-11-12T10:50:29.858Z,61.08
2022-11-12T10:52:59.820Z,61.74
2022-11-12T10:55:38.386Z,61.15
2022-11-12T10:58:11.529Z,59.54
2022-11-12T11:01:02.676Z,60.40
2022-11-12T11:03:36.545Z,59.64
2022-11-12T11:06:15.663Z,59.54
2022-11-12T11:08:45.300Z,60.15
2022-11-12T11:11:27.907Z,60.39
2022-11-12T11:13:57.452Z,59.87
2022-11-12T11:16:29.478Z,60.01
2022-11-12T11:19:00.104Z,59.18
2022-11-12T11:21:45.300Z,58.57
2022-11-12T11:24:30.875Z,59.09
2022-11-12T11:27:04.330Z,59.21
2022-11-12T11:29:46.231Z,60.09
2022-11-12T11:32:37.463Z,59.25
2022-11-12T11:35:21.123Z,58.48
2022-11-12T11:38:03.262Z,58.13
2022-11-12T11:40:41.104Z,57.68
2022-11-12T11:43:36.031Z,58.68
2022-11-12T11:46:27.734Z,58.58
2022-11-12T11:49:02.831Z,58.59
2022-11-12T11:52:00.280Z,58.81
2022-11-12T11:54:45.673Z,57.28
2022-11-12T11:57:22.155Z,58.10
2022-11-12T12:00:16.400Z,58.30
2022-11-12T12:03:01.604Z,57.34
2022-11-12T12:05:43.723Z,56.36
2022-11-12T12:08:18.791Z,57.71
2022-11-12T12:11:08.911Z,57.54
2022-11-12T12:13:57.848Z,56.75
2022-11-12T12:16:49.991Z,57.56
2022-11-12T12:19:25.924Z,56.78
2022-11-12T12:21:53.724Z,58.12
2022-11-12T12:24:28.415Z,57.42
2022-11-12T12:27:09.476Z,57.35
2022-11-12T12:29:56.512Z,56.92
2022-11-12T12:32:37.239Z,57.09
2022-11-12T12:35:16.851Z,57.11
2022-11-12T12:37:55.729Z,55.87
2022-11-12T12:40:31.302Z,56.53
2022-11-12T12:43:32.826Z,55.88
2022-11-12T12:46:00.258Z,55.91
2022-11-12T12:48:32.114Z,57.28
2022-11-12T12:50:59.249Z,56.09
2022-11-12T12:53:26.097Z,56.44
2022-11-12T12:55:55.453Z,57.11
2022-11-12T12:58:41.577Z,57.27
2022-11-12T13:01:21.272Z,56.37
2022-11-12T13:03:53.504Z,57.18
2022-11-12T13:06:23.278Z,56.74
2022-11-12T13:09:02.321Z,55.97
2022-11-12T14:25:04.851Z,59.40
2022-11-12T15:38:03.491Z,75.00
2022-11-12T17:04:09.458Z,84.58
2022-11-12T17:06:40.720Z,85.68
2022-11-12T17:09:10.436Z,85.29
2022-11-12T17:11:38.097Z,84.74
2022-11-12T17:14:06.903Z,86.89
2022-11-12T17:16:35.061Z,88.12
2022-11-12T17:19:02.620Z,87.34
2022-11-12T17:21:30.384Z,86.51
2022-11-12T17:23:58.204Z,87.40
2022-11-12T17:26:25.175Z,85.34
2022-11-12T17:29:00.084Z,84.99
2022-11-12T17:31:31.070Z,83.92
2022-11-12T17:33:58.219Z,83.28
2022-11-12T17:36:28.803Z,83.13
2022-11-12T17:38:57.349Z,83.24
2022-11-12T17:41:25.223Z,84.08
2022-11-12T17:43:59.229Z,85.41
2022-11-12T17:46:27.308Z,86.41
2022-11-12T17:48:55.375Z,86.34
2022-11-12T17:51:26.209Z,86.47
2022-11-12T17:53:54.055Z,86.37
2022-11-12T17:56:23.213Z,87.74
2022-11-12T17:58:51.445Z,87.93
2022-11-12T18:01:22.936Z,87.68
2022-11-12T18:03:53.307Z,88.85
2022-11-12T18:06:30.355Z,89.43
2022-11-12T18:09:06.899Z,88.98
2022-11-12T18:11:47.130Z,89.39
2022-11-12T18:14:14.686Z,89.09
2022-11-12T18:16:42.032Z,89.17
2022-11-12T18:19:11.275Z,89.64
2022-11-12T18:21:40.194Z,89.18
2022-11-12T18:24:12.590Z,89.35
2022-11-12T18:26:39.714Z,89.56
2022-11-12T18:29:07.661Z,89.74
2022-11-12T18:31:34.714Z,89.99
2022-11-12T18:34:01.926Z,89.48
2022-11-12T18:36:29.486Z,90.56
2022-11-12T18:38:56.721Z,90.46
2022-11-12T18:41:27.068Z,90.93
2022-11-12T18:43:54.317Z,91.32
2022-11-12T18:46:21.767Z,91.39
2022-11-12T18:48:49.218Z,91.03
2022-11-12T18:51:19.031Z,91.10
2022-11-12T18:53:46.699Z,91.73
2022-11-12T18:56:16.807Z,91.73
2022-11-12T18:58:44.223Z,90.65
2022-11-12T19:01:17.160Z,91.51
2022-11-12T19:03:44.801Z,91.71
2022-11-12T19:06:14.212Z,92.41
2022-11-12T19:08:41.911Z,92.03
2022-11-12T19:11:11.585Z,93.09
2022-11-12T19:13:41.908Z,92.83
2022-11-12T19:16:17.221Z,92.67
2022-11-12T19:18:45.321Z,92.83
2022-11-12T19:21:15.156Z,92.95
2022-11-12T19:23:43.205Z,92.57
2022-11-12T19:26:15.589Z,92.49
2022-11-12T19:28:43.753Z,92.32
2022-11-12T19:31:25.609Z,92.08
2022-11-12T19:33:52.625Z,92.25
2022-11-12T19:36:25.067Z,92.29
2022-11-12T19:38:56.956Z,92.45
2022-11-12T19:41:24.693Z,92.86
2022-11-12T19:43:52.325Z,93.57
2022-11-12T19:46:20.215Z,93.62
2022-11-12T19:48:47.372Z,93.73
2022-11-12T19:51:14.672Z,94.18
2022-11-12T19:53:46.594Z,93.68
2022-11-12T19:56:17.420Z,93.54
2022-11-12T19:58:45.492Z,93.38
2022-11-12T20:01:14.620Z,93.45
2022-11-12T20:03:41.699Z,93.41
2022-11-12T20:06:14.486Z,93.66
2022-11-12T20:08:42.274Z,93.75
2022-11-12T20:11:10.314Z,94.12
2022-11-12T20:13:37.913Z,93.99
2022-11-12T20:16:25.509Z,93.93
2022-11-12T20:18:54.833Z,93.87
2022-11-12T20:21:22.954Z,93.79
2022-11-12T20:23:50.669Z,93.58
2022-11-12T20:26:17.693Z,93.57
2022-11-12T20:28:44.987Z,93.75
2022-11-12T20:31:17.795Z,93.75
2022-11-12T20:33:44.740Z,93.97
2022-11-12T20:36:14.442Z,93.66
2022-11-12T20:38:43.602Z,93.47
2022-11-12T20:41:14.918Z,93.73
2022-11-12T20:43:42.515Z,93.73
2022-11-12T20:46:11.685Z,93.91
2022-11-12T20:48:43.309Z,93.70
2022-11-12T20:51:23.728Z,93.71
2022-11-12T20:53:59.454Z,93.87
2022-11-12T20:56:29.190Z,94.12
2022-11-12T20:58:56.749Z,93.66
2022-11-12T21:01:25.295Z,93.75
2022-11-12T21:03:52.725Z,93.81
2022-11-12T21:06:21.909Z,93.89
2022-11-12T21:08:49.205Z,93.66
2022-11-12T21:11:18.263Z,93.67
2022-11-12T21:13:45.379Z,93.36
2022-11-12T21:16:13.580Z,93.49
2022-11-12T21:18:40.967Z,92.96
2022-11-12T21:21:11.071Z,92.90
2022-11-12T21:23:40.734Z,93.11
2022-11-12T21:26:18.359Z,93.43
2022-11-12T21:28:52.326Z,93.48
2022-11-12T21:31:21.865Z,93.51
2022-11-12T21:33:54.915Z,93.05
2022-11-12T21:36:22.828Z,93.40
2022-11-12T21:38:50.068Z,93.84
2022-11-12T21:41:21.432Z,93.31
2022-11-12T21:43:49.704Z,93.46
2022-11-12T21:46:22.395Z,93.34
2022-11-12T21:48:54.941Z,93.43
2022-11-12T21:51:24.988Z,93.12
2022-11-12T21:53:57.455Z,93.04
2022-11-12T21:56:25.290Z,92.90
2022-11-12T21:58:55.145Z,92.99
2022-11-12T22:01:27.243Z,92.41
2022-11-12T22:03:56.758Z,92.46
2022-11-12T22:06:25.828Z,92.50
2022-11-12T22:08:54.825Z,92.16
2022-11-12T22:11:23.120Z,92.72
2022-11-12T22:13:50.428Z,92.86
2022-11-12T22:16:22.617Z,92.56
2022-11-12T22:18:51.691Z,92.12
2022-11-12T22:21:21.887Z,92.59
2022-11-12T22:23:49.266Z,91.60
2022-11-12T22:26:21.432Z,91.55
2022-11-12T22:28:49.062Z,91.65
2022-11-12T22:31:19.136Z,91.13
2022-11-12T22:33:46.624Z,90.93
2022-11-12T22:36:16.496Z,91.67
2022-11-12T22:38:46.241Z,90.63
2022-11-12T22:41:25.602Z,90.40
2022-11-12T22:43:56.141Z,90.47
2022-11-12T22:46:25.999Z,91.07
2022-11-12T22:48:53.842Z,91.70
2022-11-12T22:51:24.295Z,92.61
2022-11-12T22:54:00.124Z,93.42
2022-11-12T22:56:30.680Z,93.17
2022-11-12T22:58:58.316Z,93.19
2022-11-12T23:01:28.337Z,93.39
2022-11-12T23:03:58.491Z,92.68
2022-11-12T23:06:27.426Z,92.43
2022-11-12T23:08:56.449Z,92.92
2022-11-12T23:11:26.254Z,91.92
2022-11-12T23:13:54.821Z,92.33
2022-11-12T23:16:26.636Z,92.27
2022-11-12T23:18:55.363Z,91.95
2022-11-12T23:21:28.005Z,93.44
2022-11-12T23:23:58.434Z,92.73
2022-11-12T23:26:27.664Z,92.58
2022-11-12T23:28:54.629Z,92.64
2022-11-12T23:31:27.440Z,92.76
2022-11-12T23:33:56.442Z,93.08
2022-11-12T23:36:25.225Z,92.70
2022-11-12T23:38:52.967Z,92.61
2022-11-12T23:41:26.152Z,92.95
2022-11-12T23:43:54.218Z,93.49
2022-11-12T23:46:22.092Z,93.53
2022-11-12T23:48:49.074Z,94.13
2022-11-12T23:51:19.300Z,94.24
2022-11-12T23:53:46.716Z,93.71
2022-11-12T23:56:15.539Z,93.44
2022-11-12T23:58:43.007Z,93.37
